Time;durP1;ratioP1;P1;durP2;ratioP2;P2;SDS_P1;SDS_P2;PMS_P1;PMS_P2;Temp;Humidity;BMP_temperature;BMP_pressure;BME280_temperature;BME280_humidity;BME280_pressure;Samples;Min_cycle;Max_cycle;Signal;HPM_P1;HPM_P2
2022/01/18 00:00:03;;;;;;;2.20;0.57;;;;;;;-0.69;100.00;97868.69;1718885;82;21083;-69
2022/01/18 00:02:31;;;;;;;2.60;0.45;;;;;;;-0.71;100.00;97869.44;1721543;81;21463;-69
2022/01/18 00:04:57;;;;;;;1.60;0.55;;;;;;;-0.77;100.00;97862.94;1720744;82;21067;-69
2022/01/18 00:07:23;;;;;;;1.55;0.50;;;;;;;-0.74;100.00;97869.13;1714384;82;21096;-69
2022/01/18 00:09:50;;;;;;;;;;;;;;;-0.71;100.00;97877.45;1724747;82;21118;-69
2022/01/18 00:15:16;;;;;;;2.47;0.60;;;;;;;-0.75;100.00;97887.05;1715266;82;21051;-69
2022/01/18 00:17:40;;;;;;;1.55;0.70;;;;;;;-0.77;100.00;97875.77;1708738;82;21071;-69
2022/01/18 00:19:55;;;;;;;1.75;0.60;;;;;;;-0.73;100.00;97906.82;1715684;82;21039;-68
2022/01/18 00:22:22;;;;;;;3.17;0.50;;;;;;;-0.69;100.00;97918.64;1738323;82;21778;-69
2022/01/18 00:24:48;;;;;;;1.02;0.20;;;;;;;-0.67;100.00;97907.17;1737323;82;21070;-69
2022/01/18 00:27:16;;;;;;;0.78;0.25;;;;;;;-0.79;100.00;97919.30;1737163;82;21028;-69
2022/01/18 00:29:59;;;;;;;0.80;0.30;;;;;;;-0.84;100.00;97919.73;1713479;82;21059;-68
2022/01/18 00:32:23;;;;;;;1.02;0.30;;;;;;;-0.84;100.00;97960.62;1715566;82;20988;-68
2022/01/18 00:34:41;;;;;;;1.20;0.40;;;;;;;-0.91;100.00;97949.28;1720848;82;21605;-68
2022/01/18 00:39:40;;;;;;;3.80;0.30;;;;;;;-0.94;100.00;97961.78;1724579;82;21078;-68
2022/01/18 00:42:08;;;;;;;0.85;0.30;;;;;;;-0.96;100.00;97981.26;1736937;82;21012;-68
2022/01/18 00:44:35;;;;;;;16.67;0.82;;;;;;;-0.95;100.00;97995.40;1725028;82;21118;-66
2022/01/18 00:47:02;;;;;;;4.92;0.30;;;;;;;-0.98;100.00;98019.41;1735829;82;21150;-67
2022/01/18 00:49:28;;;;;;;3.62;0.40;;;;;;;-1.08;100.00;98005.34;1724373;82;21032;-67
2022/01/18 00:51:57;;;;;;;2.33;0.60;;;;;;;-1.21;100.00;98022.18;1716980;82;21059;-66
2022/01/18 00:54:28;;;;;;;0.60;0.20;;;;;;;-1.34;100.00;98021.91;1736226;82;21549;-67
2022/01/18 00:56:54;;;;;;;2.20;0.23;;;;;;;-1.42;100.00;98033.50;1727402;82;21142;-66
2022/01/18 00:59:22;;;;;;;6.85;0.45;;;;;;;-1.49;100.00;98019.48;1709048;82;20972;-67
2022/01/18 01:01:48;;;;;;;1.27;0.35;;;;;;;-1.54;100.00;98048.20;1720052;82;21024;-68
2022/01/18 01:04:15;;;;;;;2.08;0.30;;;;;;;-1.59;100.00;98046.23;1727260;82;21458;-68
2022/01/18 01:06:41;;;;;;;3.00;0.30;;;;;;;-1.62;100.00;98065.37;1726388;82;21162;-66
2022/01/18 01:09:08;;;;;;;1.20;0.30;;;;;;;-1.64;100.00;98068.00;1728104;81;21466;-67
2022/01/18 01:11:38;;;;;;;3.50;0.60;;;;;;;-1.66;100.00;98091.42;1723733;82;21119;-68
2022/01/18 01:14:03;;;;;;;1.32;0.40;;;;;;;-1.67;100.00;98099.97;1720947;82;21562;-67
2022/01/18 01:32:44;;;;;;;3.42;0.42;;;;;;;-1.63;100.00;98153.69;1740541;82;21066;-68
2022/01/18 01:41:43;;;;;;;;;;;;;;;-1.74;100.00;98173.98;1739313;82;21095;-69
2022/01/18 01:44:52;;;;;;;2.15;0.40;;;;;;;-1.94;100.00;98210.80;1739589;82;21185;-68
2022/01/18 01:47:21;;;;;;;1.98;0.37;;;;;;;-2.01;100.00;98213.58;1720052;82;21573;-68
2022/01/18 01:49:50;;;;;;;1.87;0.40;;;;;;;-2.02;100.00;98209.82;1734939;82;20995;-67
2022/01/18 01:52:16;;;;;;;2.52;0.45;;;;;;;-2.06;100.00;98201.98;1739024;82;20973;-68
2022/01/18 01:54:43;;;;;;;2.00;0.42;;;;;;;-2.08;100.00;98212.86;1676390;85;21065;-67
2022/01/18 01:57:09;;;;;;;0.55;0.30;;;;;;;-2.10;100.00;98214.95;1726202;82;21047;-68
2022/01/18 01:59:36;;;;;;;4.75;0.60;;;;;;;-2.15;100.00;98220.14;1734731;82;21035;-67
2022/01/18 02:02:03;;;;;;;1.75;0.40;;;;;;;-2.14;100.00;98203.11;1737734;82;21106;-68
2022/01/18 02:04:29;;;;;;;;;;;;;;;-2.16;100.00;98225.72;1711704;83;21007;-68
2022/01/18 02:06:55;;;;;;;2.70;0.40;;;;;;;-2.18;100.00;98253.11;1718864;82;20419;-67
2022/01/18 02:09:22;;;;;;;1.65;0.30;;;;;;;-2.20;100.00;98229.36;1733112;82;21531;-67
2022/01/18 02:11:50;;;;;;;;;;;;;;;-2.23;100.00;98221.00;1738884;82;21027;-68
2022/01/18 02:14:20;;;;;;;0.72;0.30;;;;;;;-2.26;100.00;98254.23;1727236;82;20105;-67
2022/01/18 02:22:14;;;;;;;1.60;0.40;;;;;;;-2.46;100.00;98275.52;1720460;81;21478;-68
2022/01/18 02:24:40;;;;;;;;;;;;;;;-2.48;100.00;98259.77;1715655;82;21047;-68
2022/01/18 02:27:06;;;;;;;2.95;0.30;;;;;;;-2.46;100.00;98284.84;1726274;82;20145;-68
2022/01/18 02:29:33;;;;;;;1.15;0.30;;;;;;;-2.50;100.00;98303.13;1720043;82;21003;-68
2022/01/18 02:31:59;;;;;;;2.37;0.53;;;;;;;-2.48;100.00;98298.92;1719758;82;21111;-68
2022/01/18 02:34:26;;;;;;;1.20;0.62;;;;;;;-2.47;100.00;98298.68;1721317;82;21059;-68
2022/01/18 02:36:53;;;;;;;2.15;0.50;;;;;;;-2.45;100.00;98314.46;1734823;81;21020;-68
2022/01/18 02:39:23;;;;;;;1.90;0.47;;;;;;;-2.45;100.00;98304.62;1715626;82;20960;-68
2022/01/18 02:42:04;;;;;;;1.35;0.40;;;;;;;-2.49;100.00;98330.08;1724646;82;21648;-68
2022/01/18 02:44:31;;;;;;;2.30;0.40;;;;;;;-2.46;100.00;98330.14;1717189;82;21031;-68
2022/01/18 02:46:58;;;;;;;1.42;0.30;;;;;;;-2.48;100.00;98337.56;1723831;82;21150;-69
2022/01/18 02:49:26;;;;;;;;;;;;;;;-2.50;100.00;98332.44;1733894;82;21582;-69
2022/01/18 02:51:52;;;;;;;1.02;0.40;;;;;;;-2.49;100.00;98360.72;1732384;82;20118;-68
2022/01/18 02:54:19;;;;;;;;;;;;;;;-2.52;100.00;98367.32;1736812;82;21035;-68
2022/01/18 02:56:55;;;;;;;0.42;0.20;;;;;;;-2.54;100.00;98380.03;1704472;82;20388;-68
2022/01/18 02:59:34;;;;;;;3.67;0.33;;;;;;;-2.59;100.00;98379.08;1721949;82;21478;-68
2022/01/18 03:04:50;;;;;;;1.22;0.50;;;;;;;-2.67;100.00;98365.52;1724163;82;21003;-67
2022/01/18 03:07:16;;;;;;;2.30;0.20;;;;;;;-2.74;100.00;98363.95;1714854;82;21035;-68
2022/01/18 03:13:14;;;;;;;2.25;0.57;;;;;;;-2.87;100.00;98380.06;1814066;78;22577;-66
2022/01/18 03:15:41;;;;;;;;;;;;;;;-2.95;100.00;98397.12;1766574;80;21050;-66
2022/01/18 03:18:07;;;;;;;3.45;0.57;;;;;;;-2.90;100.00;98380.47;1747131;82;20142;-67
2022/01/18 03:20:34;;;;;;;0.95;0.30;;;;;;;-2.88;100.00;98402.39;1749336;82;21081;-67
2022/01/18 03:23:18;;;;;;;0.60;0.20;;;;;;;-2.89;100.00;98393.59;1755615;81;21067;-67
2022/01/18 03:26:00;;;;;;;3.33;0.40;;;;;;;-2.92;100.00;98419.84;1737812;81;21606;-67
2022/01/18 03:28:26;;;;;;;2.12;0.30;;;;;;;-2.93;100.00;98416.86;1723809;82;21636;-66
2022/01/18 03:30:58;;;;;;;1.77;0.30;;;;;;;-2.94;100.00;98405.94;1725685;82;21060;-66
2022/01/18 03:33:28;;;;;;;1.77;0.45;;;;;;;-2.96;100.00;98411.98;1727413;83;20991;-65
2022/01/18 03:35:54;;;;;;;0.75;0.40;;;;;;;-3.02;100.00;98413.16;1727608;82;21045;-67
2022/01/18 03:38:22;;;;;;;1.72;0.45;;;;;;;-3.05;100.00;98422.89;1727138;83;21045;-67
2022/01/18 03:40:48;;;;;;;1.25;0.33;;;;;;;-3.05;100.00;98423.43;1727623;82;21604;-67
2022/01/18 03:43:14;;;;;;;1.95;0.30;;;;;;;-3.06;100.00;98425.78;1727830;83;21033;-66
2022/01/18 03:45:44;;;;;;;1.45;0.40;;;;;;;-3.08;100.00;98441.96;1727603;82;21058;-66
2022/01/18 03:48:15;;;;;;;0.82;0.30;;;;;;;-3.10;100.00;98437.38;1727750;83;20987;-66
2022/01/18 03:50:42;;;;;;;0.78;0.33;;;;;;;-3.13;100.00;98445.80;1722383;82;21063;-66
2022/01/18 03:53:10;;;;;;;;;;;;;;;-3.19;100.00;98451.17;1730371;83;21461;-67
2022/01/18 03:55:37;;;;;;;1.42;0.47;;;;;;;-3.24;100.00;98466.45;1727385;82;20185;-67
2022/01/18 03:58:03;;;;;;;1.67;0.50;;;;;;;-3.29;100.00;98458.79;1711450;83;21053;-66
2022/01/18 04:00:30;;;;;;;2.92;0.60;;;;;;;-3.31;100.00;98464.85;1727754;82;21089;-66
2022/01/18 04:02:57;;;;;;;2.42;0.60;;;;;;;-3.32;100.00;98465.36;1727739;83;21055;-66
2022/01/18 04:05:24;;;;;;;2.83;0.30;;;;;;;-3.30;100.00;98458.00;1727613;82;21094;-66
2022/01/18 04:07:50;;;;;;;;;;;;;;;-3.28;100.00;98499.84;1730039;83;21510;-66
2022/01/18 04:10:17;;;;;;;1.95;0.42;;;;;;;-3.29;100.00;98512.83;1719038;82;20179;-67
2022/01/18 04:12:43;;;;;;;1.25;0.40;;;;;;;-3.29;100.00;98478.75;1721228;83;21019;-67
2022/01/18 04:15:12;;;;;;;1.75;0.33;;;;;;;-3.32;100.00;98500.47;1726857;82;21100;-66
2022/01/18 04:28:42;;;;;;;1.47;0.42;;;;;;;-3.37;100.00;98494.48;1720654;83;21006;-66
2022/01/18 04:31:07;;;;;;;3.20;0.55;;;;;;;-3.35;100.00;98526.17;1724087;82;21081;-65
2022/01/18 04:33:35;;;;;;;1.50;0.40;;;;;;;-3.35;100.00;98536.82;1723802;83;21035;-67
2022/01/18 04:36:02;;;;;;;1.65;0.55;;;;;;;-3.35;100.00;98547.47;1722683;82;21536;-67
2022/01/18 04:38:29;;;;;;;5.42;0.40;;;;;;;-3.31;100.00;98555.33;1716266;83;21027;-66
2022/01/18 04:41:01;;;;;;;2.37;0.53;;;;;;;-3.28;100.00;98555.73;1718314;82;21086;-66
2022/01/18 04:48:23;;;;;;;4.08;0.62;;;;;;;-3.25;100.00;98581.09;1722363;83;21050;-66
2022/01/18 04:48:40;;;;;;;2.75;0.45;;;;;;;-3.21;100.00;98597.77;1724505;83;21050;-67
2022/01/18 04:51:08;;;;;;;;;;;;;;;-3.19;100.00;98603.69;1726855;82;21568;-67
2022/01/18 04:53:41;;;;;;;2.83;0.37;;;;;;;-3.22;100.00;98593.97;1724401;83;20109;-67
2022/01/18 04:56:14;;;;;;;1.00;0.30;;;;;;;-3.27;100.00;98613.77;1699898;83;21079;-66
2022/01/18 04:58:37;;;;;;;2.70;0.40;;;;;;;-3.22;100.00;98626.73;1724107;83;21013;-67
2022/01/18 05:01:06;;;;;;;2.83;0.50;;;;;;;-3.22;100.00;98638.72;1724797;82;21089;-67
2022/01/18 05:03:33;;;;;;;1.82;0.50;;;;;;;-3.19;100.00;98634.84;1724912;83;21537;-67
2022/01/18 05:06:07;;;;;;;5.15;0.40;;;;;;;-3.21;100.00;98623.56;1724508;82;21077;-67
2022/01/18 05:08:30;;;;;;;3.70;0.65;;;;;;;-3.18;100.00;98635.94;1724327;83;21027;-67
2022/01/18 05:10:57;;;;;;;0.80;0.30;;;;;;;-3.26;100.00;98632.71;1724606;82;21062;-67
2022/01/18 05:13:52;;;;;;;1.98;0.50;;;;;;;-3.34;100.00;98652.89;1724834;83;21501;-67
2022/01/18 05:16:26;;;;;;;2.85;0.60;;;;;;;-3.42;100.00;98661.91;1720421;82;21074;-67
2022/01/18 05:21:16;;;;;;;1.80;0.60;;;;;;;-3.47;100.00;98653.73;1725075;82;21589;-68
2022/01/18 05:23:36;;;;;;;2.92;0.60;;;;;;;-3.46;100.00;98666.52;1711407;83;21034;-67
2022/01/18 05:26:03;;;;;;;1.55;0.50;;;;;;;-3.48;100.00;98665.41;1711877;82;21550;-68
2022/01/18 05:28:29;;;;;;;4.85;0.82;;;;;;;-3.49;100.00;98666.43;1711554;84;21066;-68
2022/01/18 05:30:55;;;;;;;2.45;0.65;;;;;;;-3.49;100.00;98672.27;1700741;83;21082;-68
2022/01/18 05:33:22;;;;;;;3.67;0.55;;;;;;;-3.52;100.00;98668.18;1697109;84;21585;-67
2022/01/18 05:35:50;;;;;;;3.75;0.60;;;;;;;-3.55;100.00;98680.58;1704675;83;21111;-67
2022/01/18 05:38:16;;;;;;;2.70;0.60;;;;;;;-3.61;100.00;98680.05;1709433;84;20978;-67
2022/01/18 05:40:42;;;;;;;10.80;0.88;;;;;;;-3.66;100.00;98700.64;1711904;83;21550;-67
2022/01/18 05:43:08;;;;;;;1.60;0.53;;;;;;;-3.68;100.00;98708.50;1712199;84;21001;-68
2022/01/18 05:45:35;;;;;;;2.17;0.60;;;;;;;-3.69;100.00;98698.39;1711470;82;21087;-67
2022/01/18 05:48:01;;;;;;;2.45;0.62;;;;;;;-3.72;100.00;98696.66;1712093;84;21022;-68
2022/01/18 05:50:28;;;;;;;3.92;0.90;;;;;;;-3.77;100.00;98703.91;1710627;82;21554;-68
2022/01/18 05:52:54;;;;;;;2.52;0.50;;;;;;;-3.76;100.00;98713.53;1711854;84;21059;-67
2022/01/18 05:55:21;;;;;;;1.32;0.50;;;;;;;-3.80;100.00;98713.64;1712068;82;21498;-67
2022/01/18 05:57:47;;;;;;;3.05;0.70;;;;;;;-3.81;100.00;98715.98;1711721;84;21054;-67
2022/01/18 06:00:20;;;;;;;2.47;1.00;;;;;;;-3.82;100.00;98718.32;1711959;83;21063;-67
2022/01/18 06:08:09;;;;;;;2.17;0.55;;;;;;;-3.85;100.00;98752.48;1706622;84;21544;-65
2022/01/18 06:10:36;;;;;;;1.87;0.50;;;;;;;-3.82;100.00;98749.41;1683299;84;21150;-68
2022/01/18 06:13:04;;;;;;;3.50;0.50;;;;;;;-3.83;100.00;98755.77;1697182;83;21533;-67
2022/01/18 06:15:31;;;;;;;2.90;0.60;;;;;;;-3.82;100.00;98765.37;1711068;83;21063;-67
2022/01/18 06:17:58;;;;;;;1.95;0.60;;;;;;;-3.80;100.00;98772.14;1711528;84;21051;-66
2022/01/18 06:20:24;;;;;;;6.10;2.35;;;;;;;-3.76;100.00;98776.55;1711411;83;21110;-68
2022/01/18 06:22:51;;;;;;;2.83;0.60;;;;;;;-3.74;100.00;98768.66;1707953;83;21564;-66
2022/01/18 06:25:19;;;;;;;2.50;0.72;;;;;;;-3.71;100.00;98761.59;1714366;82;21074;-67
2022/01/18 06:27:46;;;;;;;2.08;0.60;;;;;;;-3.67;100.00;98776.13;1724592;83;21030;-67
2022/01/18 06:30:12;;;;;;;2.00;0.53;;;;;;;-3.61;100.00;98771.31;1724711;82;21061;-67
2022/01/18 06:32:40;;;;;;;1.55;0.65;;;;;;;-3.57;100.00;98795.16;1723897;83;21049;-65
2022/01/18 06:35:08;;;;;;;2.62;0.50;;;;;;;-3.54;100.00;98797.41;1724885;82;21550;-66
2022/01/18 06:37:35;;;;;;;4.28;0.70;;;;;;;-3.51;100.00;98805.52;1724644;83;21525;-66
2022/01/18 06:40:03;;;;;;;1.60;0.50;;;;;;;-3.46;100.00;98799.55;1725024;82;21039;-66
2022/01/18 06:42:30;;;;;;;3.47;0.70;;;;;;;-3.45;100.00;98792.71;1724337;83;21069;-67
2022/01/18 06:44:57;;;;;;;2.02;0.50;;;;;;;-3.42;100.00;98803.45;1724884;82;21041;-66
2022/01/18 06:47:23;;;;;;;2.42;0.75;;;;;;;-3.40;100.00;98810.20;1724618;83;21638;-66
2022/01/18 06:49:50;;;;;;;2.55;0.60;;;;;;;-3.37;100.00;98805.00;1724961;82;21065;-66
2022/01/18 06:52:16;;;;;;;3.02;0.75;;;;;;;-3.33;100.00;98824.86;1724476;83;21023;-65
2022/01/18 06:54:43;;;;;;;;;;;;;;;-3.32;100.00;98817.98;1727278;82;21062;-66
2022/01/18 06:57:09;;;;;;;5.10;0.70;;;;;;;-3.32;100.00;98806.00;1724652;83;20152;-65
2022/01/18 06:59:35;;;;;;;1.80;0.65;;;;;;;-3.33;100.00;98822.98;1724619;82;21517;-65
2022/01/18 07:02:03;;;;;;;2.22;0.80;;;;;;;-3.34;100.00;98812.06;1724465;83;21033;-66
2022/01/18 07:04:29;;;;;;;3.35;0.70;;;;;;;-3.32;100.00;98829.95;1724858;82;21497;-65
2022/01/18 07:06:55;;;;;;;2.58;0.60;;;;;;;-3.32;100.00;98825.97;1724890;83;21049;-65
2022/01/18 07:09:25;;;;;;;2.42;0.90;;;;;;;-3.28;100.00;98827.20;1704591;83;21527;-66
2022/01/18 07:11:53;;;;;;;2.05;0.60;;;;;;;-3.28;100.00;98824.54;1698334;83;21078;-65
2022/01/18 07:14:19;;;;;;;2.87;1.00;;;;;;;-3.28;100.00;98825.87;1724557;83;20990;-66
2022/01/18 07:16:45;;;;;;;2.17;0.80;;;;;;;-3.26;100.00;98833.13;1724700;82;21655;-65
2022/01/18 07:19:12;;;;;;;3.25;0.78;;;;;;;-3.25;100.00;98841.42;1724404;83;21015;-65
2022/01/18 07:21:38;;;;;;;2.95;0.60;;;;;;;-3.20;100.00;98833.66;1723846;82;21588;-67
2022/01/18 07:24:16;;;;;;;2.33;0.55;;;;;;;-3.15;100.00;98851.14;1718516;83;21023;-66
2022/01/18 07:26:35;;;;;;;3.10;0.90;;;;;;;-3.14;100.00;98843.98;1717629;82;21035;-66
2022/01/18 07:29:01;;;;;;;2.47;0.95;;;;;;;-3.11;100.00;98845.72;1719339;83;20992;-65
2022/01/18 07:31:28;;;;;;;2.77;1.00;;;;;;;-3.06;100.00;98861.91;1719059;82;21102;-66
2022/01/18 07:33:54;;;;;;;2.67;1.10;;;;;;;-3.02;100.00;98870.30;1714036;82;21412;-66
2022/01/18 07:36:21;;;;;;;4.33;1.20;;;;;;;-2.94;100.00;98855.42;1714848;82;21022;-66
2022/01/18 07:38:48;;;;;;;3.37;1.15;;;;;;;-2.82;100.00;98867.61;1713170;83;21051;-66
2022/01/18 07:41:14;;;;;;;2.52;0.80;;;;;;;-2.72;100.00;98869.33;1718738;82;21587;-66
2022/01/18 07:43:41;;;;;;;2.12;0.75;;;;;;;-2.64;100.00;98876.60;1719438;83;21021;-67
2022/01/18 07:46:07;;;;;;;1.67;0.60;;;;;;;-2.51;100.00;98868.56;1719264;82;21510;-66
2022/01/18 07:48:34;;;;;;;1.98;0.80;;;;;;;-2.44;100.00;98881.08;1714053;83;21038;-66
2022/01/18 07:51:00;;;;;;;3.98;1.02;;;;;;;-2.44;100.00;98889.08;1717554;82;21584;-67
2022/01/18 07:53:26;;;;;;;2.47;0.78;;;;;;;-2.44;100.00;98878.42;1719445;83;21046;-66
2022/01/18 07:55:53;;;;;;;3.10;0.93;;;;;;;-2.39;100.00;98889.25;1719489;82;21532;-64
2022/01/18 07:58:19;;;;;;;2.05;0.75;;;;;;;-2.36;100.00;98880.83;1716988;83;21087;-65
2022/01/18 08:00:47;;;;;;;4.55;1.00;;;;;;;-2.27;100.00;98896.92;1696707;83;21751;-64
2022/01/18 08:03:13;;;;;;;4.08;0.95;;;;;;;-2.25;100.00;98914.33;1704758;84;21581;-64
2022/01/18 08:05:40;;;;;;;4.95;0.93;;;;;;;-2.29;100.00;98905.11;1705051;83;21139;-66
2022/01/18 08:08:07;;;;;;;2.70;0.75;;;;;;;-2.34;100.00;98919.59;1705121;84;21079;-66
2022/01/18 08:10:35;;;;;;;3.17;0.85;;;;;;;-2.38;100.00;98926.37;1717198;82;21074;-65
2022/01/18 08:13:03;;;;;;;2.35;0.70;;;;;;;-2.42;100.00;98931.81;1719244;83;21065;-65
2022/01/18 08:15:37;;;;;;;1.98;0.80;;;;;;;-2.46;100.00;98936.42;1715928;83;21006;-63
2022/01/18 08:18:00;;;;;;;2.27;0.55;;;;;;;-2.44;100.00;98938.38;1715798;83;21092;-64
2022/01/18 08:20:27;;;;;;;1.62;0.50;;;;;;;-2.38;100.00;98938.88;1719457;82;21037;-65
2022/01/18 08:22:53;;;;;;;3.90;0.50;;;;;;;-2.27;100.00;98951.06;1717087;83;21588;-65
2022/01/18 08:25:19;;;;;;;4.12;0.60;;;;;;;-2.26;100.00;98926.52;1711990;82;21010;-65
2022/01/18 08:27:46;;;;;;;1.67;0.45;;;;;;;-2.28;100.00;98953.41;1711177;83;21022;-66
2022/01/18 08:30:13;;;;;;;2.40;0.40;;;;;;;-2.25;99.96;98925.00;1693691;84;21712;-66
2022/01/18 08:32:41;;;;;;;1.35;0.40;;;;;;;-2.20;99.60;98971.04;1691285;83;21066;-66
2022/01/18 08:35:09;;;;;;;4.45;0.60;;;;;;;-2.09;96.61;98972.53;1712721;82;21030;-65
2022/01/18 08:37:36;;;;;;;4.50;0.53;;;;;;;-2.08;94.99;98947.50;1705611;84;21040;-66
2022/01/18 08:40:04;;;;;;;8.93;0.65;;;;;;;-2.10;96.05;98988.75;1711809;83;21063;-66
2022/01/18 08:42:31;;;;;;;4.03;0.70;;;;;;;-2.12;94.74;98988.13;1715525;83;21057;-66
2022/01/18 08:44:57;;;;;;;;;;;;;;;-2.18;95.57;98972.46;1713706;83;21023;-66
2022/01/18 08:47:24;;;;;;;2.08;0.60;;;;;;;-2.19;95.80;98988.66;1700681;83;20136;-65
2022/01/18 08:49:50;;;;;;;;;;;;;;;-2.30;99.00;98986.11;1714318;83;21965;-66
2022/01/18 08:52:17;;;;;;;2.08;0.50;;;;;;;-2.31;100.00;98993.00;1712985;83;20141;-66
2022/01/18 08:54:43;;;;;;;3.47;0.68;;;;;;;-2.36;100.00;98997.61;1711271;82;21533;-66
2022/01/18 08:57:14;;;;;;;2.25;0.40;;;;;;;-2.40;100.00;98992.38;1709681;84;21049;-65
2022/01/18 08:59:42;;;;;;;2.55;0.70;;;;;;;-2.41;100.00;99008.59;1710605;82;20971;-66
2022/01/18 09:02:09;;;;;;;0.95;0.40;;;;;;;-2.48;100.00;99009.94;1710425;84;21126;-66
2022/01/18 09:04:36;;;;;;;2.92;0.62;;;;;;;-2.51;100.00;99012.48;1711539;82;21019;-65
2022/01/18 09:07:08;;;;;;;1.87;0.35;;;;;;;-2.49;100.00;99030.94;1709755;83;21484;-64
2022/01/18 09:09:36;;;;;;;1.85;0.57;;;;;;;-2.51;100.00;99020.47;1703082;82;21574;-65
2022/01/18 09:12:03;;;;;;;2.65;0.60;;;;;;;-2.48;98.83;99045.09;1709610;84;21056;-66
2022/01/18 09:14:29;;;;;;;1.92;0.50;;;;;;;-2.49;97.95;99034.11;1711386;82;21057;-66
2022/01/18 09:16:56;;;;;;;2.25;0.50;;;;;;;-2.46;95.87;99037.70;1711533;83;21046;-65
2022/01/18 09:19:22;;;;;;;2.30;0.60;;;;;;;-2.45;97.75;99038.02;1709281;84;20993;-65
2022/01/18 09:21:49;;;;;;;2.83;0.70;;;;;;;-2.33;98.57;99047.84;1704874;82;21073;-64
2022/01/18 09:24:16;;;;;;;2.80;0.50;;;;;;;-2.23;99.01;99046.91;1706181;84;21074;-65
2022/01/18 09:26:43;;;;;;;3.77;0.53;;;;;;;-2.10;98.91;99048.76;1711342;83;21120;-64
2022/01/18 09:29:11;;;;;;;2.52;0.50;;;;;;;-2.03;92.63;99042.91;1700445;84;21613;-64
2022/01/18 09:31:37;;;;;;;5.17;0.70;;;;;;;-2.10;89.56;99044.75;1695851;84;21092;-64
2022/01/18 09:34:04;;;;;;;3.65;0.80;;;;;;;-2.19;92.04;99045.47;1711999;83;21046;-63
2022/01/18 09:36:31;;;;;;;2.50;0.68;;;;;;;-2.16;92.65;99056.26;1712140;83;21099;-64
2022/01/18 09:38:58;;;;;;;1.70;0.57;;;;;;;-2.13;90.90;99049.17;1711448;84;21071;-64
2022/01/18 09:41:30;;;;;;;2.17;0.68;;;;;;;-2.10;90.76;99048.76;1711615;82;21640;-65
2022/01/18 09:43:57;;;;;;;2.22;0.55;;;;;;;-2.08;89.41;99054.69;1711583;84;21082;-64
2022/01/18 09:46:27;;;;;;;3.95;0.50;;;;;;;-2.04;89.11;99051.41;1711829;82;21080;-65
2022/01/18 09:48:54;;;;;;;2.62;0.47;;;;;;;-1.85;86.73;99068.93;1711610;84;21042;-64
2022/01/18 09:51:21;;;;;;;2.90;0.60;;;;;;;-1.79;87.89;99075.58;1713464;82;21049;-63
2022/01/18 09:53:48;;;;;;;3.45;0.60;;;;;;;-1.58;85.50;99065.16;1711053;83;21517;-63
2022/01/18 09:56:16;;;;;;;2.17;0.60;;;;;;;-1.54;83.04;99079.22;1692626;83;21075;-64
2022/01/18 09:58:44;;;;;;;1.82;0.60;;;;;;;-1.61;82.17;99085.09;1679650;84;21097;-64
2022/01/18 10:01:10;;;;;;;4.05;0.60;;;;;;;-1.72;80.77;99079.56;1711369;82;21625;-64
2022/01/18 10:03:38;;;;;;;1.82;0.40;;;;;;;-1.80;80.53;99076.59;1708729;84;21007;-63
2022/01/18 10:06:06;;;;;;;3.08;0.47;;;;;;;-1.80;81.50;99087.78;1711557;83;21106;-64
2022/01/18 10:08:33;;;;;;;3.58;0.80;;;;;;;-1.82;77.43;99076.00;1711416;84;21054;-63
2022/01/18 10:11:10;;;;;;;2.15;0.70;;;;;;;-1.85;77.50;99087.60;1705703;82;21570;-65
2022/01/18 10:13:38;;;;;;;8.48;0.60;;;;;;;-1.70;77.24;99055.63;1693443;84;21480;-64
2022/01/18 10:16:20;;;;;;;1.85;0.72;;;;;;;-1.60;77.24;99071.23;1711571;82;21061;-64
2022/01/18 10:18:52;;;;;;;1.82;0.37;;;;;;;-1.53;77.32;99076.86;1711333;83;21623;-64
2022/01/18 10:21:30;;;;;;;3.12;0.60;;;;;;;-1.59;74.21;99069.67;1711665;82;21981;-64
2022/01/18 10:24:25;;;;;;;2.60;0.70;;;;;;;-1.71;77.80;99086.04;1686583;84;21114;-64
2022/01/18 10:26:54;;;;;;;2.62;0.57;;;;;;;-1.69;79.10;99098.64;1713107;84;21074;-64
2022/01/18 10:29:27;;;;;;;2.40;0.60;;;;;;;-1.75;77.61;99090.15;1714722;84;21592;-63
2022/01/18 10:34:41;;;;;;;3.20;0.60;;;;;;;-1.95;75.78;99087.21;1711310;84;21028;-65
2022/01/18 10:37:04;;;;;;;4.87;0.78;;;;;;;-1.95;75.62;99107.22;1707977;84;21397;-66
2022/01/18 10:39:49;;;;;;;1.85;0.65;;;;;;;-1.99;78.53;99107.31;1712617;83;21527;-65
2022/01/18 10:42:38;;;;;;;4.28;0.60;;;;;;;-2.01;79.62;99101.67;1694141;84;21527;-64
2022/01/18 10:45:07;;;;;;;5.12;0.50;;;;;;;-2.02;79.31;99097.35;1701916;83;22004;-64
2022/01/18 10:47:33;;;;;;;1.67;0.50;;;;;;;-2.14;80.39;99107.02;1714608;84;21088;-66
2022/01/18 10:50:14;;;;;;;3.65;0.60;;;;;;;-2.15;81.18;99109.37;1714911;82;21049;-64
2022/01/18 10:52:41;;;;;;;7.62;0.60;;;;;;;-2.11;82.14;99123.11;1712009;83;21026;-66
2022/01/18 10:55:14;;;;;;;5.10;0.60;;;;;;;-2.15;84.74;99121.88;1714478;82;21098;-66
2022/01/18 10:57:41;;;;;;;2.95;0.65;;;;;;;-2.16;83.76;99146.38;1703520;83;21051;-65
2022/01/18 11:00:23;;;;;;;3.25;0.50;;;;;;;-2.18;84.77;99120.95;1714426;83;21055;-65
2022/01/18 11:02:51;;;;;;;1.72;0.50;;;;;;;-2.18;86.17;99127.62;1686455;84;21049;-66
2022/01/18 11:05:26;;;;;;;1.00;0.40;;;;;;;-2.14;86.94;99147.52;1714664;83;21070;-66
2022/01/18 11:07:54;;;;;;;2.37;0.42;;;;;;;-2.06;87.84;99147.33;1714827;84;21082;-65
2022/01/18 11:10:23;;;;;;;2.60;0.60;;;;;;;-1.91;86.58;99159.14;1710902;83;21062;-66
2022/01/18 11:12:57;;;;;;;0.85;0.40;;;;;;;-1.77;84.93;99165.56;1694301;84;21485;-66
2022/01/18 11:15:23;;;;;;;3.85;0.42;;;;;;;-1.71;80.89;99161.27;1709916;83;21493;-66
2022/01/18 11:17:56;;;;;;;3.08;0.50;;;;;;;-1.68;78.56;99137.66;1702493;84;21068;-65
2022/01/18 11:20:20;;;;;;;1.62;0.30;;;;;;;-1.65;78.84;99175.11;1705706;83;21052;-66
2022/01/18 11:22:49;;;;;;;4.97;0.50;;;;;;;-1.63;79.76;99161.86;1715022;84;21046;-66
2022/01/18 11:25:16;;;;;;;1.52;0.40;;;;;;;-1.71;81.41;99179.44;1711425;82;21069;-65
2022/01/18 11:27:47;;;;;;;1.32;0.35;;;;;;;-1.76;81.29;99165.05;1711500;84;21062;-65
2022/01/18 11:30:11;;;;;;;3.90;0.50;;;;;;;-1.86;82.71;99171.33;1711122;83;21589;-64
2022/01/18 11:32:39;;;;;;;1.47;0.30;;;;;;;-1.90;84.34;99190.09;1709094;84;21080;-65
2022/01/18 11:35:52;;;;;;;2.65;0.78;;;;;;;-1.97;84.92;99191.44;1711937;82;21037;-66
2022/01/18 11:38:50;;;;;;;3.20;0.53;;;;;;;-2.05;82.81;99179.63;1712206;84;21057;-65
2022/01/18 11:41:27;;;;;;;1.65;0.40;;;;;;;-2.10;83.20;99194.09;1665606;83;21105;-66
2022/01/18 11:43:56;;;;;;;2.98;0.70;;;;;;;-2.15;84.27;99208.55;1703980;84;21594;-65
2022/01/18 11:46:40;;;;;;;1.37;0.50;;;;;;;-2.15;84.72;99215.20;1705897;82;21588;-66
2022/01/18 11:49:22;;;;;;;1.92;0.50;;;;;;;-2.20;86.49;99228.34;1711570;83;21113;-64
2022/01/18 11:51:58;;;;;;;1.42;0.40;;;;;;;-2.21;88.75;99240.02;1699990;82;21136;-67
2022/01/18 11:54:45;;;;;;;2.60;0.50;;;;;;;-2.23;89.62;99234.88;1708362;84;22044;-66
2022/01/18 11:57:26;;;;;;;4.85;0.95;;;;;;;-2.20;93.61;99253.67;1701862;83;21412;-66
2022/01/18 12:00:23;;;;;;;2.70;0.60;;;;;;;-2.21;92.40;99235.52;1689667;84;21108;-67
2022/01/18 12:02:54;;;;;;;2.47;0.80;;;;;;;-2.25;94.35;99240.94;1705126;83;21066;-67
2022/01/18 12:05:20;;;;;;;4.17;1.17;;;;;;;-2.27;97.97;99254.17;1704949;83;21042;-63
2022/01/18 12:07:59;;;;;;;1.57;0.70;;;;;;;-2.29;99.85;99264.20;1710693;84;20974;-64
2022/01/18 12:10:43;;;;;;;2.90;1.10;;;;;;;-2.26;100.00;99263.80;1704228;83;21091;-63
2022/01/18 12:13:32;;;;;;;2.12;0.80;;;;;;;-2.27;100.00;99268.84;1709315;84;21691;-65
2022/01/18 12:16:05;;;;;;;2.10;0.62;;;;;;;-2.25;100.00;99287.60;1711723;82;21160;-66
2022/01/18 12:18:32;;;;;;;3.12;0.90;;;;;;;-2.21;100.00;99278.19;1708940;83;21015;-65
2022/01/18 12:21:00;;;;;;;;;;;;;;;-2.21;100.00;99292.84;1714026;83;21106;-66
2022/01/18 12:23:30;;;;;;;2.40;0.72;;;;;;;-2.20;100.00;99291.84;1706596;84;20525;-62
2022/01/18 12:26:16;;;;;;;2.40;0.80;;;;;;;-2.22;100.00;99309.03;1704949;83;21115;-64
2022/01/18 12:34:35;;;;;;;2.42;0.70;;;;;;;-2.16;100.00;99302.38;1705422;84;21051;-65
2022/01/18 12:37:16;;;;;;;1.72;0.60;;;;;;;-2.10;100.00;99318.94;1711358;84;21030;-63
2022/01/18 12:40:08;;;;;;;2.65;0.47;;;;;;;-2.10;98.03;99323.45;1707671;83;21103;-65
2022/01/18 12:45:24;;;;;;;2.17;1.07;;;;;;;-2.09;98.65;99323.23;1702344;83;21079;-67
2022/01/18 12:48:05;;;;;;;2.75;1.20;;;;;;;-2.10;98.95;99320.27;1710141;84;20999;-66
2022/01/18 12:50:37;;;;;;;2.42;1.00;;;;;;;-2.09;99.91;99328.56;1703421;83;21083;-65
2022/01/18 12:53:12;;;;;;;1.37;0.55;;;;;;;-2.06;100.00;99330.03;1681997;85;21090;-66